createdAt,value
2022-12-03T00:00:22.807Z,11.30
2022-12-03T00:03:10.843Z,12.10
2022-12-03T00:05:41.873Z,11.90
2022-12-03T00:08:16.203Z,13.10
2022-12-03T00:10:48.548Z,12.60
2022-12-03T00:13:16.500Z,11.40
2022-12-03T00:15:44.466Z,11.70
2022-12-03T00:18:12.424Z,10.10
2022-12-03T00:20:40.627Z,11.30
2022-12-03T00:23:08.460Z,11.10
2022-12-03T00:25:36.372Z,10.90
2022-12-03T00:28:04.583Z,10.20
2022-12-03T00:30:32.555Z,11.20
2022-12-03T00:33:00.448Z,11.70
2022-12-03T00:35:28.337Z,10.80
2022-12-03T00:37:56.199Z,11.30
2022-12-03T00:40:24.741Z,11.80
2022-12-03T00:42:52.722Z,11.40
2022-12-03T00:45:20.558Z,11.60
2022-12-03T00:47:48.447Z,11.60
2022-12-03T00:50:16.438Z,11.10
2022-12-03T00:52:44.353Z,12.00
2022-12-03T00:55:12.336Z,12.40
2022-12-03T00:57:40.228Z,13.00
2022-12-03T01:00:10.379Z,12.10
2022-12-03T01:02:38.219Z,12.30
2022-12-03T01:05:06.894Z,12.50
2022-12-03T01:07:36.454Z,11.30
2022-12-03T01:10:04.971Z,11.90
2022-12-03T01:12:32.853Z,13.00
2022-12-03T01:15:00.738Z,11.90
2022-12-03T01:17:28.719Z,11.60
2022-12-03T01:19:56.646Z,9.50
2022-12-03T01:22:25.276Z,11.30
2022-12-03T01:24:53.669Z,12.20
2022-12-03T01:27:21.689Z,10.90
2022-12-03T01:29:49.660Z,11.30
2022-12-03T01:32:17.854Z,11.00
2022-12-03T01:34:47.591Z,12.50
2022-12-03T01:37:16.063Z,11.00
2022-12-03T01:39:44.074Z,9.60
2022-12-03T01:42:17.680Z,8.20
2022-12-03T01:44:46.733Z,9.40
2022-12-03T01:47:18.370Z,9.20
2022-12-03T01:49:54.005Z,9.90
2022-12-03T01:52:29.165Z,10.60
2022-12-03T01:55:03.437Z,11.50
2022-12-03T01:57:45.041Z,11.20
2022-12-03T02:00:19.183Z,10.40
2022-12-03T02:02:50.445Z,10.30
2022-12-03T02:05:21.775Z,10.80
2022-12-03T02:07:50.110Z,12.20
2022-12-03T02:10:25.862Z,12.20
2022-12-03T02:13:03.261Z,12.40
2022-12-03T02:15:31.264Z,13.20
2022-12-03T02:18:00.135Z,13.30
2022-12-03T02:20:28.066Z,10.30
2022-12-03T02:23:01.024Z,11.10
2022-12-03T02:25:32.296Z,11.40
2022-12-03T02:28:01.417Z,10.30
2022-12-03T02:30:30.652Z,10.60
2022-12-03T02:32:59.448Z,10.20
2022-12-03T02:35:30.677Z,10.00
2022-12-03T02:38:20.495Z,9.90
2022-12-03T02:40:51.611Z,10.40
2022-12-03T02:43:22.013Z,10.90
2022-12-03T02:45:53.959Z,10.60
2022-12-03T02:48:40.056Z,10.80
2022-12-03T02:51:10.416Z,10.50
2022-12-03T02:53:44.699Z,11.30
2022-12-03T02:56:16.244Z,10.70
2022-12-03T02:58:47.027Z,10.30
2022-12-03T03:01:15.707Z,9.20
2022-12-03T03:03:45.629Z,10.00
2022-12-03T03:06:15.790Z,11.10
2022-12-03T03:08:44.759Z,10.40
2022-12-03T03:11:12.757Z,11.00
2022-12-03T03:13:40.823Z,11.30
2022-12-03T03:16:09.870Z,9.30
2022-12-03T03:18:38.255Z,9.90
2022-12-03T03:21:06.520Z,9.90
2022-12-03T03:23:34.765Z,9.30
2022-12-03T03:26:02.576Z,10.60
2022-12-03T03:28:31.148Z,11.40
2022-12-03T03:31:01.916Z,11.20
2022-12-03T03:33:30.594Z,11.80
2022-12-03T03:36:00.582Z,12.40
2022-12-03T03:38:30.007Z,12.50
2022-12-03T03:41:00.610Z,12.50
2022-12-03T03:43:30.273Z,12.20
2022-12-03T03:45:58.251Z,12.20
2022-12-03T03:48:26.373Z,12.70
2022-12-03T03:51:03.257Z,12.50
2022-12-03T03:53:33.180Z,11.30
2022-12-03T03:56:01.225Z,10.70
2022-12-03T03:58:29.088Z,11.00
2022-12-03T04:00:56.979Z,11.70
2022-12-03T04:03:24.804Z,10.60
2022-12-03T04:05:52.726Z,12.10
2022-12-03T04:08:20.556Z,11.30
2022-12-03T04:11:07.222Z,10.90
2022-12-03T04:13:35.786Z,12.10
2022-12-03T04:16:04.357Z,12.70
2022-12-03T04:18:45.078Z,9.10
2022-12-03T04:21:34.310Z,11.00
2022-12-03T04:24:03.546Z,12.70
2022-12-03T04:26:50.425Z,10.80
2022-12-03T04:29:19.489Z,12.20
2022-12-03T04:32:06.575Z,11.80
2022-12-03T04:34:53.816Z,12.10
2022-12-03T04:37:25.279Z,12.20
2022-12-03T04:39:53.898Z,10.50
2022-12-03T04:42:22.462Z,11.10
2022-12-03T04:44:50.539Z,10.10
2022-12-03T04:47:20.921Z,11.10
2022-12-03T04:49:51.369Z,10.70
2022-12-03T04:52:20.683Z,11.00
2022-12-03T04:54:49.348Z,9.80
2022-12-03T04:57:17.257Z,10.40
2022-12-03T04:59:45.069Z,10.40
2022-12-03T05:02:13.895Z,10.00
2022-12-03T05:04:43.433Z,10.80
2022-12-03T05:09:42.109Z,11.20
2022-12-03T05:12:10.341Z,10.10
2022-12-03T05:14:38.305Z,10.50
2022-12-03T05:17:06.625Z,9.80
2022-12-03T05:19:53.579Z,9.50
2022-12-03T05:22:22.142Z,9.70
2022-12-03T05:24:50.888Z,9.70
2022-12-03T05:27:23.646Z,9.30
2022-12-03T05:29:53.016Z,10.60
2022-12-03T05:32:21.516Z,11.00
2022-12-03T05:34:53.223Z,10.00
2022-12-03T05:37:21.560Z,9.80
2022-12-03T05:39:49.319Z,9.90
2022-12-03T05:42:35.970Z,10.50
2022-12-03T05:45:04.445Z,9.90
2022-12-03T05:47:32.354Z,11.40
2022-12-03T05:50:00.192Z,10.60
2022-12-03T05:52:28.952Z,11.60
2022-12-03T05:54:57.104Z,11.00
2022-12-03T05:57:25.208Z,14.80
2022-12-03T05:59:53.002Z,13.70
2022-12-03T06:02:21.128Z,12.40
2022-12-03T06:04:49.495Z,10.60
2022-12-03T06:07:17.561Z,11.00
2022-12-03T06:09:45.410Z,12.20
2022-12-03T06:12:13.557Z,11.50
2022-12-03T06:14:41.577Z,12.40
2022-12-03T06:17:09.476Z,12.90
2022-12-03T06:19:37.547Z,12.10
2022-12-03T06:22:05.513Z,12.10
2022-12-03T06:24:33.649Z,11.20
2022-12-03T06:27:01.757Z,11.80
2022-12-03T06:29:29.831Z,11.40
2022-12-03T06:31:57.860Z,11.20
2022-12-03T06:34:25.964Z,11.00
2022-12-03T06:36:53.908Z,11.30
2022-12-03T06:39:21.791Z,12.10
2022-12-03T06:41:49.648Z,12.50
2022-12-03T06:44:17.534Z,11.50
2022-12-03T06:46:45.627Z,12.00
2022-12-03T06:49:13.610Z,12.50
2022-12-03T06:51:41.679Z,11.90
2022-12-03T06:54:09.893Z,11.40
2022-12-03T06:56:44.697Z,10.10
2022-12-03T06:59:14.050Z,11.80
2022-12-03T07:01:42.002Z,12.70
2022-12-03T07:04:10.547Z,12.00
2022-12-03T07:06:38.551Z,12.70
2022-12-03T07:09:06.461Z,12.00
2022-12-03T07:11:40.637Z,10.80
2022-12-03T07:14:11.549Z,13.40
2022-12-03T07:16:40.340Z,15.60
2022-12-03T07:19:08.240Z,15.30
2022-12-03T07:21:36.697Z,16.00
2022-12-03T07:24:05.647Z,15.30
2022-12-03T07:26:33.602Z,19.60
2022-12-03T07:29:01.482Z,21.50
2022-12-03T07:31:29.609Z,20.40
2022-12-03T07:33:57.557Z,19.10
2022-12-03T07:36:25.435Z,17.10
2022-12-03T07:38:53.269Z,15.40
2022-12-03T07:41:21.043Z,15.80
2022-12-03T07:43:48.926Z,17.00
2022-12-03T07:46:17.290Z,15.30
2022-12-03T07:48:45.189Z,15.20
2022-12-03T07:51:15.404Z,14.90
2022-12-03T07:53:43.575Z,15.60
2022-12-03T07:56:11.606Z,16.40
2022-12-03T07:58:39.658Z,16.30
2022-12-03T08:01:10.124Z,16.70
2022-12-03T08:03:38.670Z,12.20
2022-12-03T08:06:06.717Z,9.80
2022-12-03T08:08:34.783Z,15.40
2022-12-03T08:11:02.729Z,16.20
2022-12-03T08:13:30.950Z,15.50
2022-12-03T08:16:02.168Z,13.80
2022-12-03T08:18:30.056Z,13.20
2022-12-03T08:20:58.348Z,12.70
2022-12-03T08:23:26.534Z,13.70
2022-12-03T08:25:54.691Z,14.10
2022-12-03T08:28:26.642Z,13.00
2022-12-03T08:31:02.716Z,14.70
2022-12-03T08:33:35.452Z,14.10
2022-12-03T08:36:13.345Z,19.20
2022-12-03T08:38:41.512Z,16.20
2022-12-03T08:41:15.759Z,15.40
2022-12-03T08:43:44.006Z,13.30
2022-12-03T08:46:19.214Z,12.80
2022-12-03T08:48:49.472Z,12.30
2022-12-03T08:51:27.282Z,12.50
2022-12-03T08:54:04.282Z,12.90
2022-12-03T08:56:36.181Z,11.40
2022-12-03T08:59:28.357Z,11.40
2022-12-03T09:01:58.239Z,11.30
2022-12-03T09:04:41.397Z,11.80
2022-12-03T09:07:13.113Z,11.80
2022-12-03T09:09:41.164Z,12.40
2022-12-03T09:12:09.108Z,13.40
2022-12-03T09:14:39.045Z,14.20
2022-12-03T09:17:07.225Z,12.90
2022-12-03T09:19:44.287Z,12.20
2022-12-03T09:22:15.346Z,11.70
2022-12-03T09:24:43.627Z,13.10
2022-12-03T09:27:11.515Z,11.70
2022-12-03T09:29:39.523Z,10.80
2022-12-03T09:32:07.755Z,13.10
2022-12-03T09:34:35.884Z,13.10
2022-12-03T09:37:03.718Z,11.90
2022-12-03T09:39:34.685Z,14.00
2022-12-03T09:44:33.701Z,10.80
2022-12-03T09:47:11.990Z,10.90
2022-12-03T09:49:41.181Z,10.60
2022-12-03T09:52:14.117Z,9.90
2022-12-03T09:54:47.107Z,12.10
2022-12-03T09:57:17.139Z,10.10
2022-12-03T09:59:45.775Z,10.40
2022-12-03T10:02:28.467Z,11.10
2022-12-03T10:04:58.148Z,9.00
2022-12-03T10:07:26.580Z,8.60
2022-12-03T10:09:54.742Z,9.70
2022-12-03T10:12:26.655Z,8.80
2022-12-03T10:14:55.555Z,8.20
2022-12-03T10:20:33.124Z,7.80
2022-12-03T10:23:01.049Z,9.20
2022-12-03T10:25:29.162Z,9.70
2022-12-03T10:28:00.808Z,8.50
2022-12-03T10:30:29.421Z,8.70
2022-12-03T10:32:59.038Z,8.50
2022-12-03T10:35:42.172Z,10.70
2022-12-03T10:38:24.752Z,9.40
2022-12-03T10:40:52.828Z,10.00
2022-12-03T10:43:26.389Z,8.50
2022-12-03T10:46:04.696Z,7.60
2022-12-03T10:48:37.764Z,8.30
2022-12-03T10:51:27.455Z,9.20
2022-12-03T10:53:55.528Z,8.20
2022-12-03T10:56:32.051Z,7.80
2022-12-03T10:59:03.388Z,8.10
2022-12-03T11:01:32.295Z,7.90
2022-12-03T11:04:05.330Z,7.50
2022-12-03T11:06:33.741Z,7.50
2022-12-03T11:09:08.781Z,8.50
2022-12-03T11:11:37.346Z,8.40
2022-12-03T11:14:07.659Z,8.80
2022-12-03T11:16:41.616Z,7.00
2022-12-03T11:19:12.771Z,7.40
2022-12-03T11:24:27.407Z,7.90
2022-12-03T11:26:55.199Z,6.30
2022-12-03T11:29:54.855Z,6.50
2022-12-03T11:32:38.307Z,6.10
2022-12-03T11:35:13.698Z,7.00
2022-12-03T11:37:43.877Z,6.90
2022-12-03T11:40:17.966Z,6.40
2022-12-03T11:42:47.980Z,6.30
2022-12-03T11:45:36.020Z,6.00
2022-12-03T11:48:15.103Z,6.60
2022-12-03T11:50:52.872Z,6.80
2022-12-03T11:56:06.737Z,6.50
2022-12-03T11:58:38.734Z,7.10
2022-12-03T12:01:08.505Z,6.30
2022-12-03T12:03:49.094Z,7.50
2022-12-03T12:06:19.618Z,6.30
2022-12-03T12:08:58.616Z,7.00
2022-12-03T12:11:28.910Z,6.50
2022-12-03T12:14:04.005Z,7.70
2022-12-03T12:16:52.491Z,8.40
2022-12-03T12:19:29.025Z,8.00
2022-12-03T12:22:12.137Z,8.10
2022-12-03T12:24:54.472Z,7.20
2022-12-03T12:27:34.652Z,7.40
2022-12-03T12:30:13.047Z,9.60
2022-12-03T12:33:07.851Z,8.40
2022-12-03T12:35:42.013Z,9.20
2022-12-03T12:38:16.275Z,8.20
2022-12-03T12:40:51.990Z,8.10
2022-12-03T12:43:24.712Z,8.30
2022-12-03T12:45:57.084Z,8.40
2022-12-03T12:48:36.681Z,8.80
2022-12-03T12:51:14.951Z,9.00
2022-12-03T12:53:43.620Z,8.10
2022-12-03T12:56:28.006Z,9.20
2022-12-03T12:59:03.987Z,8.70
2022-12-03T13:01:33.921Z,9.50
2022-12-03T13:04:04.318Z,7.50
2022-12-03T13:06:32.485Z,8.40
2022-12-03T13:09:04.401Z,8.10
2022-12-03T13:11:46.357Z,9.00
2022-12-03T13:14:32.454Z,8.10
2022-12-03T13:17:27.348Z,8.60
2022-12-03T13:20:14.518Z,9.40
2022-12-03T13:22:53.467Z,8.10
2022-12-03T13:26:00.243Z,8.20
2022-12-03T13:28:31.826Z,8.90
2022-12-03T13:31:23.571Z,8.20
2022-12-03T13:34:00.745Z,7.90
2022-12-03T13:36:47.531Z,8.20
2022-12-03T13:39:39.547Z,8.80
2022-12-03T13:42:43.286Z,8.10
2022-12-03T13:45:14.354Z,7.90
2022-12-03T13:47:53.264Z,7.40
2022-12-03T13:50:41.233Z,7.90
2022-12-03T13:53:40.511Z,7.60
2022-12-03T13:56:33.130Z,7.40
2022-12-03T13:59:01.827Z,7.90
2022-12-03T14:01:30.211Z,7.30
2022-12-03T14:03:58.476Z,7.70
2022-12-03T14:06:26.826Z,7.20
2022-12-03T14:08:54.898Z,6.70
2022-12-03T14:11:41.456Z,7.70
2022-12-03T14:14:09.523Z,8.60
2022-12-03T14:16:37.850Z,8.40
2022-12-03T14:19:06.382Z,7.00
2022-12-03T14:21:34.180Z,8.90
2022-12-03T14:24:02.117Z,9.80
2022-12-03T14:26:29.996Z,8.00
2022-12-03T14:28:59.146Z,7.80
2022-12-03T14:31:27.217Z,9.30
2022-12-03T14:33:55.088Z,9.10
2022-12-03T14:36:23.092Z,8.70
2022-12-03T14:38:51.025Z,8.60
2022-12-03T14:41:37.743Z,9.50
2022-12-03T14:44:05.630Z,9.00
2022-12-03T14:46:33.491Z,9.40
2022-12-03T14:49:01.335Z,9.50
2022-12-03T14:51:29.244Z,8.90
2022-12-03T14:53:57.448Z,9.20
2022-12-03T14:56:25.721Z,11.50
2022-12-03T14:58:58.603Z,12.80
2022-12-03T15:01:26.646Z,15.80
2022-12-03T15:03:54.795Z,14.20
2022-12-03T15:06:22.876Z,13.90
2022-12-03T15:08:51.357Z,16.30
2022-12-03T15:11:19.317Z,13.10
2022-12-03T15:13:47.340Z,13.00
2022-12-03T15:16:15.730Z,13.70
2022-12-03T15:18:43.700Z,12.00
2022-12-03T15:21:12.790Z,12.20
2022-12-03T15:23:44.761Z,11.00
2022-12-03T15:26:16.228Z,12.60
2022-12-03T15:28:48.527Z,13.50
2022-12-03T15:31:16.837Z,12.70
2022-12-03T15:33:44.760Z,11.50
2022-12-03T15:36:12.965Z,14.70
2022-12-03T15:38:40.890Z,12.20
2022-12-03T15:41:27.374Z,12.30
2022-12-03T15:44:00.047Z,10.60
2022-12-03T15:46:28.628Z,13.00
2022-12-03T15:48:57.629Z,11.30
2022-12-03T15:51:26.932Z,13.10
2022-12-03T15:53:55.031Z,12.00
2022-12-03T15:56:23.162Z,12.70
2022-12-03T15:58:51.131Z,12.50
2022-12-03T16:01:19.413Z,12.30
2022-12-03T16:03:47.470Z,13.10
2022-12-03T16:06:15.761Z,14.10
2022-12-03T16:08:43.778Z,12.80
2022-12-03T16:11:12.321Z,14.40
2022-12-03T16:13:40.528Z,11.30
2022-12-03T16:16:10.839Z,9.80
2022-12-03T16:18:38.741Z,12.00
2022-12-03T16:21:06.662Z,10.60
2022-12-03T16:23:34.980Z,11.00
2022-12-03T16:26:06.469Z,11.60
2022-12-03T16:28:35.013Z,12.00
2022-12-03T16:31:04.030Z,11.10
2022-12-03T16:33:32.267Z,11.80
2022-12-03T16:36:00.095Z,10.90
2022-12-03T16:38:28.070Z,11.60
2022-12-03T16:40:55.806Z,12.30
2022-12-03T16:43:23.820Z,10.90
2022-12-03T16:46:03.321Z,12.30
2022-12-03T16:48:31.467Z,11.20
2022-12-03T16:50:59.413Z,11.40
2022-12-03T16:53:27.343Z,10.60
2022-12-03T16:55:55.649Z,12.20
2022-12-03T16:58:23.773Z,11.00
2022-12-03T17:00:58.020Z,11.90
2022-12-03T17:03:32.059Z,10.90
2022-12-03T17:06:03.007Z,10.90
2022-12-03T17:08:31.529Z,8.80
2022-12-03T17:11:02.628Z,10.60
2022-12-03T17:13:31.250Z,11.40
2022-12-03T17:16:01.661Z,9.90
2022-12-03T17:18:30.070Z,10.50
2022-12-03T17:21:04.822Z,8.80
2022-12-03T17:23:33.036Z,8.80
2022-12-03T17:26:02.937Z,10.90
2022-12-03T17:28:31.412Z,9.20
2022-12-03T17:30:59.342Z,8.90
2022-12-03T17:33:27.328Z,10.30
2022-12-03T17:35:55.147Z,9.60
2022-12-03T17:38:23.279Z,10.00
2022-12-03T17:40:51.353Z,10.10
2022-12-03T17:43:19.485Z,10.00
2022-12-03T17:45:50.100Z,9.90
2022-12-03T17:48:24.801Z,10.40
2022-12-03T17:50:56.969Z,11.40
2022-12-03T17:53:28.113Z,9.80
2022-12-03T17:56:06.451Z,9.30
2022-12-03T17:58:39.193Z,9.50
2022-12-03T18:01:12.074Z,9.70
2022-12-03T18:03:40.564Z,9.70
2022-12-03T18:06:09.024Z,8.50
2022-12-03T18:08:37.292Z,9.80
2022-12-03T18:11:05.517Z,10.70
2022-12-03T18:13:34.543Z,8.50
2022-12-03T18:16:02.608Z,10.00
2022-12-03T18:18:30.530Z,9.50
2022-12-03T18:21:02.362Z,10.70
2022-12-03T18:23:33.066Z,10.20
2022-12-03T18:26:04.612Z,9.10
2022-12-03T18:28:32.894Z,8.80
2022-12-03T18:31:06.863Z,10.00
2022-12-03T18:33:35.164Z,10.70
2022-12-03T18:36:03.049Z,9.80
2022-12-03T18:38:33.360Z,10.70
2022-12-03T18:41:02.314Z,10.70
2022-12-03T18:43:30.540Z,9.10
2022-12-03T18:45:58.591Z,10.10
2022-12-03T18:48:26.466Z,7.50
2022-12-03T18:50:56.620Z,9.80
2022-12-03T18:53:24.871Z,10.30
2022-12-03T18:55:52.940Z,10.20
2022-12-03T18:58:26.692Z,10.60
2022-12-03T19:00:56.924Z,10.50
2022-12-03T19:03:25.188Z,8.70
2022-12-03T19:05:53.171Z,9.70
2022-12-03T19:08:21.263Z,9.80
2022-12-03T19:11:04.541Z,7.70
2022-12-03T19:13:34.505Z,8.20
2022-12-03T19:16:04.677Z,8.00
2022-12-03T19:18:35.782Z,8.70
2022-12-03T19:21:12.531Z,9.90
2022-12-03T19:23:42.777Z,8.60
2022-12-03T19:26:15.508Z,8.90
2022-12-03T19:28:43.560Z,7.90
2022-12-03T19:31:14.965Z,10.00
2022-12-03T19:33:44.302Z,9.00
2022-12-03T19:36:31.500Z,9.30
2022-12-03T19:39:00.913Z,11.20
2022-12-03T19:41:32.532Z,10.30
2022-12-03T19:44:00.731Z,9.90
2022-12-03T19:46:31.420Z,10.30
2022-12-03T19:48:59.643Z,8.50
2022-12-03T19:51:36.005Z,8.80
2022-12-03T19:54:07.234Z,8.80
2022-12-03T19:59:04.004Z,9.70
2022-12-03T20:01:34.719Z,10.00
2022-12-03T20:04:05.177Z,9.80
2022-12-03T20:06:35.709Z,9.50
2022-12-03T20:09:07.016Z,9.00
2022-12-03T20:11:38.212Z,7.20
2022-12-03T20:14:10.888Z,7.60
2022-12-03T20:16:38.979Z,7.40
2022-12-03T20:19:10.106Z,8.80
2022-12-03T20:21:44.793Z,8.40
2022-12-03T20:24:19.888Z,8.30
2022-12-03T20:26:50.563Z,9.30
2022-12-03T20:29:18.553Z,10.00
2022-12-03T20:31:46.444Z,10.10
2022-12-03T20:34:15.418Z,9.50
2022-12-03T20:36:44.320Z,10.50
2022-12-03T20:39:12.256Z,10.30
2022-12-03T20:41:40.074Z,10.20
2022-12-03T20:44:08.499Z,7.80
2022-12-03T20:46:36.748Z,10.00
2022-12-03T20:49:05.433Z,7.10
2022-12-03T20:51:33.765Z,6.60
2022-12-03T20:54:02.673Z,9.80
2022-12-03T20:56:31.664Z,10.90
2022-12-03T20:59:00.936Z,10.50
2022-12-03T21:01:29.033Z,9.40
2022-12-03T21:03:57.418Z,11.90
2022-12-03T21:06:28.227Z,10.80
2022-12-03T21:11:29.864Z,11.80
2022-12-03T21:13:59.011Z,11.10
2022-12-03T21:17:06.114Z,11.30
2022-12-03T21:19:21.328Z,9.40
2022-12-03T21:21:49.497Z,9.00
2022-12-03T21:24:17.382Z,9.20
2022-12-03T21:26:46.203Z,8.40
2022-12-03T21:29:14.438Z,9.50
2022-12-03T21:31:42.293Z,8.50
2022-12-03T21:34:10.322Z,8.50
2022-12-03T21:36:38.848Z,9.50
2022-12-03T21:39:07.428Z,6.50
2022-12-03T21:41:35.749Z,7.90
2022-12-03T21:44:04.534Z,7.60
2022-12-03T21:47:12.751Z,7.40
2022-12-03T21:49:22.774Z,9.20
2022-12-03T21:51:50.583Z,9.60
2022-12-03T21:54:18.528Z,7.60
2022-12-03T21:56:46.608Z,8.70
2022-12-03T21:59:14.850Z,7.80
2022-12-03T22:01:46.958Z,9.70
2022-12-03T22:04:15.203Z,7.00
2022-12-03T22:06:43.478Z,6.90
2022-12-03T22:09:14.929Z,7.50
2022-12-03T22:11:51.597Z,7.70
2022-12-03T22:14:24.447Z,7.20
2022-12-03T22:16:52.567Z,7.40
2022-12-03T22:19:24.525Z,7.30
2022-12-03T22:21:55.502Z,7.50
2022-12-03T22:26:54.981Z,8.50
2022-12-03T22:29:23.058Z,7.90
2022-12-03T22:31:51.129Z,7.00
2022-12-03T22:34:19.132Z,8.50
2022-12-03T22:36:48.742Z,6.80
2022-12-03T22:39:16.613Z,6.70
2022-12-03T22:41:44.505Z,5.80
2022-12-03T22:44:15.789Z,7.00
2022-12-03T22:46:43.968Z,8.10
2022-12-03T22:49:13.231Z,8.80
2022-12-03T22:51:44.618Z,7.80
2022-12-03T22:54:13.441Z,7.40
2022-12-03T22:56:41.595Z,8.20
2022-12-03T22:59:09.642Z,7.50
2022-12-03T23:01:39.606Z,7.30
2022-12-03T23:04:08.895Z,8.20
2022-12-03T23:06:37.795Z,7.40
2022-12-03T23:09:07.465Z,7.20
2022-12-03T23:11:35.870Z,7.10
2022-12-03T23:14:03.922Z,7.90
2022-12-03T23:16:33.184Z,7.40
2022-12-03T23:19:12.047Z,8.70
2022-12-03T23:21:46.363Z,8.70
2022-12-03T23:24:14.187Z,8.20
2022-12-03T23:26:42.306Z,7.70
2022-12-03T23:29:10.182Z,8.10
2022-12-03T23:31:38.132Z,7.10
2022-12-03T23:34:06.344Z,7.50
2022-12-03T23:36:34.486Z,6.70
2022-12-03T23:39:03.112Z,7.60
2022-12-03T23:41:31.045Z,7.90
2022-12-03T23:43:58.903Z,7.80
2022-12-03T23:46:27.578Z,7.10
2022-12-03T23:48:58.625Z,6.70
2022-12-03T23:51:26.839Z,6.80
2022-12-03T23:53:56.240Z,6.60
2022-12-03T23:56:27.600Z,6.60
2022-12-03T23:58:57.439Z,7.40
